createdAt,value
2023-02-08T00:00:48.303Z,7.18
2023-02-08T00:03:51.500Z,7.65
2023-02-08T00:06:54.016Z,7.90
2023-02-08T00:09:58.769Z,7.32
2023-02-08T00:13:01.255Z,7.78
2023-02-08T00:16:04.433Z,7.25
2023-02-08T00:19:06.620Z,7.18
2023-02-08T00:22:11.675Z,7.60
2023-02-08T00:25:13.749Z,7.03
2023-02-08T00:28:17.173Z,7.93
2023-02-08T00:31:19.360Z,7.63
2023-02-08T00:34:21.559Z,8.05
2023-02-08T00:37:24.346Z,7.80
2023-02-08T00:40:27.288Z,8.20
2023-02-08T00:43:29.440Z,7.80
2023-02-08T00:46:33.254Z,8.00
2023-02-08T00:49:35.434Z,7.85
2023-02-08T00:52:38.758Z,7.72
2023-02-08T00:55:41.412Z,8.02
2023-02-08T00:58:44.978Z,6.30
2023-02-08T01:01:49.148Z,7.65
2023-02-08T01:04:51.354Z,7.38
2023-02-08T01:07:53.638Z,7.28
2023-02-08T01:11:04.676Z,6.80
2023-02-08T01:14:06.922Z,7.35
2023-02-08T01:17:09.099Z,6.88
2023-02-08T01:20:11.985Z,7.28
2023-02-08T01:23:14.131Z,7.47
2023-02-08T01:26:18.205Z,7.00
2023-02-08T01:29:20.730Z,7.47
2023-02-08T01:32:22.847Z,6.03
2023-02-08T01:35:24.998Z,7.38
2023-02-08T01:38:27.064Z,8.43
2023-02-08T01:41:32.686Z,7.57
2023-02-08T01:45:12.110Z,7.80
2023-02-08T01:48:23.361Z,7.13
2023-02-08T01:51:31.573Z,7.50
2023-02-08T01:54:39.160Z,7.50
2023-02-08T01:57:43.011Z,7.80
2023-02-08T02:00:45.991Z,7.93
2023-02-08T02:03:48.275Z,7.57
2023-02-08T02:06:58.910Z,8.18
2023-02-08T02:10:11.032Z,7.30
2023-02-08T02:13:24.964Z,7.50
2023-02-08T02:16:27.116Z,8.23
2023-02-08T02:19:31.999Z,8.98
2023-02-08T02:23:01.945Z,7.82
2023-02-08T02:26:40.693Z,7.95
2023-02-08T02:30:10.587Z,8.02
2023-02-08T02:33:16.501Z,8.30
2023-02-08T02:36:32.750Z,9.23
2023-02-08T02:39:58.701Z,8.18
2023-02-08T02:43:21.922Z,7.47
2023-02-08T02:46:29.121Z,8.95
2023-02-08T02:49:38.594Z,8.10
2023-02-08T02:52:48.798Z,8.20
2023-02-08T02:55:58.854Z,8.35
2023-02-08T02:59:05.682Z,7.13
2023-02-08T03:02:09.066Z,6.97
2023-02-08T03:05:13.672Z,7.88
2023-02-08T03:08:40.457Z,7.07
2023-02-08T03:11:53.451Z,7.28
2023-02-08T03:15:16.812Z,7.15
2023-02-08T03:18:21.571Z,7.53
2023-02-08T03:21:35.493Z,8.57
2023-02-08T03:24:37.532Z,7.72
2023-02-08T03:27:49.601Z,8.80
2023-02-08T03:31:13.324Z,8.20
2023-02-08T03:34:19.298Z,7.93
2023-02-08T03:37:30.255Z,8.70
2023-02-08T03:40:56.333Z,8.45
2023-02-08T03:44:06.386Z,8.65
2023-02-08T03:47:19.914Z,10.57
2023-02-08T03:50:24.231Z,9.15
2023-02-08T03:53:27.763Z,8.65
2023-02-08T03:56:41.852Z,8.82
2023-02-08T03:59:50.312Z,9.73
2023-02-08T04:02:57.862Z,8.63
2023-02-08T04:06:00.181Z,7.57
2023-02-08T04:09:02.266Z,7.28
2023-02-08T04:12:05.731Z,9.00
2023-02-08T04:15:08.767Z,8.20
2023-02-08T04:18:11.002Z,8.65
2023-02-08T04:21:13.525Z,7.47
2023-02-08T04:24:15.556Z,9.88
2023-02-08T04:27:17.841Z,8.95
2023-02-08T04:30:20.010Z,9.30
2023-02-08T04:33:22.159Z,8.38
2023-02-08T04:36:24.364Z,8.35
2023-02-08T04:39:26.455Z,10.18
2023-02-08T04:42:28.553Z,9.40
2023-02-08T04:45:32.182Z,10.52
2023-02-08T04:48:34.750Z,10.25
2023-02-08T04:51:36.975Z,9.38
2023-02-08T04:54:40.858Z,9.77
2023-02-08T04:57:45.071Z,10.38
2023-02-08T05:00:47.104Z,10.05
2023-02-08T05:03:49.290Z,10.27
2023-02-08T05:06:51.292Z,9.32
2023-02-08T05:09:53.473Z,9.50
2023-02-08T05:12:55.447Z,10.63
2023-02-08T05:15:57.991Z,10.27
2023-02-08T05:19:01.106Z,10.63
2023-02-08T05:22:03.216Z,9.35
2023-02-08T05:25:05.754Z,11.00
2023-02-08T05:28:07.835Z,9.27
2023-02-08T05:31:24.872Z,9.23
2023-02-08T05:34:27.093Z,9.88
2023-02-08T05:37:29.106Z,10.32
2023-02-08T05:43:33.645Z,10.07
2023-02-08T05:46:38.074Z,9.57
2023-02-08T05:49:40.680Z,10.88
2023-02-08T05:52:42.781Z,9.65
2023-02-08T05:55:46.619Z,11.05
2023-02-08T05:58:48.702Z,9.70
2023-02-08T06:01:51.238Z,11.57
2023-02-08T06:04:53.338Z,10.00
2023-02-08T06:07:55.422Z,11.82
2023-02-08T06:10:57.465Z,11.55
2023-02-08T06:13:59.949Z,10.75
2023-02-08T06:17:01.941Z,11.30
2023-02-08T06:20:05.323Z,11.57
2023-02-08T06:23:07.513Z,10.32
2023-02-08T06:26:09.609Z,9.95
2023-02-08T06:29:11.710Z,8.95
2023-02-08T06:32:13.929Z,10.77
2023-02-08T06:35:16.175Z,9.43
2023-02-08T06:38:18.348Z,12.00
2023-02-08T06:41:20.959Z,11.70
2023-02-08T06:44:23.253Z,11.75
2023-02-08T06:47:30.965Z,10.98
2023-02-08T06:50:33.037Z,11.07
2023-02-08T06:53:35.135Z,11.05
2023-02-08T06:56:37.522Z,11.15
2023-02-08T06:59:40.388Z,10.23
2023-02-08T07:02:42.732Z,10.27
2023-02-08T07:05:58.686Z,6.82
2023-02-08T07:09:05.949Z,11.70
2023-02-08T07:12:08.356Z,11.68
2023-02-08T07:15:13.398Z,12.57
2023-02-08T07:18:15.634Z,13.10
2023-02-08T07:21:17.819Z,12.77
2023-02-08T07:24:20.744Z,12.75
2023-02-08T07:27:25.028Z,11.88
2023-02-08T07:30:28.230Z,11.70
2023-02-08T07:33:30.893Z,11.18
2023-02-08T07:36:38.120Z,12.05
2023-02-08T07:39:40.400Z,12.45
2023-02-08T07:42:42.478Z,12.90
2023-02-08T07:45:57.098Z,14.07
2023-02-08T07:48:59.257Z,11.57
2023-02-08T07:52:02.030Z,12.15
2023-02-08T07:55:04.240Z,11.68
2023-02-08T07:58:10.074Z,11.45
2023-02-08T08:01:22.358Z,12.95
2023-02-08T08:04:26.775Z,11.15
2023-02-08T08:07:28.794Z,12.82
2023-02-08T08:10:32.538Z,11.23
2023-02-08T08:13:36.846Z,12.63
2023-02-08T08:16:38.996Z,11.70
2023-02-08T08:19:41.602Z,12.75
2023-02-08T08:22:43.998Z,13.48
2023-02-08T08:25:46.228Z,11.80
2023-02-08T08:28:49.630Z,12.38
2023-02-08T08:31:58.826Z,12.38
2023-02-08T08:35:01.133Z,15.07
2023-02-08T08:38:09.302Z,12.02
2023-02-08T08:41:15.057Z,11.93
2023-02-08T08:44:17.775Z,12.63
2023-02-08T08:47:20.823Z,12.90
2023-02-08T08:50:23.377Z,12.77
2023-02-08T08:53:27.279Z,14.05
2023-02-08T08:56:30.241Z,14.77
2023-02-08T08:59:33.220Z,14.20
2023-02-08T09:02:35.598Z,14.05
2023-02-08T09:05:37.688Z,13.48
2023-02-08T09:08:41.311Z,15.52
2023-02-08T09:11:43.497Z,15.07
2023-02-08T09:14:45.597Z,15.02
2023-02-08T09:17:47.743Z,14.73
2023-02-08T09:20:50.266Z,13.82
2023-02-08T09:23:52.424Z,15.38
2023-02-08T09:26:55.619Z,13.88
2023-02-08T09:30:00.444Z,14.55
2023-02-08T09:33:06.273Z,14.73
2023-02-08T09:36:09.726Z,13.13
2023-02-08T09:39:19.268Z,14.07
2023-02-08T09:42:30.428Z,12.68
2023-02-08T09:46:08.296Z,13.50
2023-02-08T09:49:18.971Z,13.70
2023-02-08T09:52:27.801Z,13.27
2023-02-08T09:55:35.229Z,13.10
2023-02-08T09:58:44.955Z,13.70
2023-02-08T10:01:49.927Z,13.63
2023-02-08T10:05:03.826Z,13.13
2023-02-08T10:08:09.904Z,12.45
2023-02-08T10:11:40.115Z,12.32
2023-02-08T10:15:00.983Z,13.18
2023-02-08T10:18:41.226Z,11.65
2023-02-08T10:21:56.130Z,12.88
2023-02-08T10:25:25.597Z,13.82
2023-02-08T10:32:15.162Z,13.50
2023-02-08T10:35:39.565Z,12.85
2023-02-08T10:38:46.810Z,12.85
2023-02-08T10:41:50.553Z,13.73
2023-02-08T10:45:01.666Z,10.02
2023-02-08T10:48:10.717Z,13.60
2023-02-08T10:51:16.944Z,13.00
2023-02-08T10:54:19.173Z,13.85
2023-02-08T10:57:26.094Z,13.30
2023-02-08T11:00:32.517Z,11.75
2023-02-08T11:03:35.868Z,12.00
2023-02-08T11:06:41.864Z,12.18
2023-02-08T11:09:43.996Z,13.10
2023-02-08T11:12:56.734Z,12.32
2023-02-08T11:16:01.489Z,12.40
2023-02-08T11:19:08.478Z,11.85
2023-02-08T11:22:18.035Z,12.82
2023-02-08T11:25:39.626Z,11.50
2023-02-08T11:28:42.323Z,11.23
2023-02-08T11:32:02.604Z,11.93
2023-02-08T11:35:24.538Z,11.40
2023-02-08T11:38:28.692Z,13.80
2023-02-08T11:41:34.050Z,14.80
2023-02-08T11:44:44.234Z,14.18
2023-02-08T11:47:48.532Z,13.90
2023-02-08T11:50:58.023Z,13.95
2023-02-08T11:54:04.636Z,12.38
2023-02-08T12:06:17.504Z,14.60
2023-02-08T12:10:29.904Z,17.70
2023-02-08T12:14:32.985Z,13.65
2023-02-08T12:18:22.741Z,13.80
2023-02-08T12:21:29.766Z,14.63
2023-02-08T12:24:56.943Z,15.13
2023-02-08T12:28:31.044Z,14.98
2023-02-08T12:32:06.388Z,13.10
2023-02-08T12:35:48.298Z,15.30
2023-02-08T12:39:51.821Z,13.82
2023-02-08T12:43:13.965Z,14.13
2023-02-08T12:46:49.887Z,14.05
2023-02-08T12:50:19.873Z,14.45
2023-02-08T12:53:31.141Z,15.23
2023-02-08T12:56:39.111Z,15.38
2023-02-08T12:59:55.781Z,15.85
2023-02-08T13:03:10.269Z,17.40
2023-02-08T13:06:20.771Z,16.95
2023-02-08T13:09:49.040Z,13.35
2023-02-08T13:12:53.703Z,15.73
2023-02-08T13:16:36.713Z,15.45
2023-02-08T13:19:58.997Z,12.90
2023-02-08T13:23:07.960Z,14.93
2023-02-08T13:26:23.692Z,16.67
2023-02-08T13:29:28.339Z,16.67
2023-02-08T13:32:44.481Z,15.38
2023-02-08T13:35:53.505Z,13.73
2023-02-08T13:38:58.403Z,14.00
2023-02-08T13:42:01.961Z,14.05
2023-02-08T13:45:07.788Z,14.02
2023-02-08T13:48:18.677Z,14.57
2023-02-08T13:51:34.288Z,14.95
2023-02-08T13:54:36.312Z,14.38
2023-02-08T13:57:53.501Z,14.50
2023-02-08T14:00:56.622Z,15.30
2023-02-08T14:04:07.764Z,16.42
2023-02-08T14:07:36.393Z,15.82
2023-02-08T14:10:46.805Z,16.63
2023-02-08T14:13:59.418Z,17.50
2023-02-08T14:17:04.266Z,16.75
2023-02-08T14:20:07.738Z,16.75
2023-02-08T14:23:26.424Z,15.10
2023-02-08T14:26:29.202Z,18.55
2023-02-08T14:29:33.107Z,15.57
2023-02-08T14:32:39.039Z,16.05
2023-02-08T14:35:50.781Z,14.98
2023-02-08T14:38:55.090Z,16.50
2023-02-08T14:42:01.790Z,16.77
2023-02-08T14:45:05.202Z,17.98
2023-02-08T14:48:19.473Z,17.15
2023-02-08T14:51:32.295Z,15.82
2023-02-08T14:54:46.660Z,16.25
2023-02-08T14:57:49.141Z,17.80
2023-02-08T15:00:54.282Z,16.27
2023-02-08T15:04:02.313Z,16.85
2023-02-08T15:07:15.647Z,17.30
2023-02-08T15:10:20.569Z,18.45
2023-02-08T15:13:27.697Z,17.38
2023-02-08T15:16:41.805Z,16.77
2023-02-08T15:19:46.600Z,18.67
2023-02-08T15:22:49.163Z,17.58
2023-02-08T15:25:56.914Z,17.58
2023-02-08T15:29:03.361Z,18.35
2023-02-08T15:32:14.387Z,17.13
2023-02-08T15:35:24.381Z,17.42
2023-02-08T15:38:27.293Z,17.50
2023-02-08T15:41:34.011Z,17.27
2023-02-08T15:44:36.193Z,16.20
2023-02-08T15:47:39.994Z,17.30
2023-02-08T15:50:42.387Z,17.17
2023-02-08T15:53:48.538Z,18.33
2023-02-08T15:57:05.365Z,17.52
2023-02-08T16:00:39.798Z,16.83
2023-02-08T16:03:48.377Z,15.00
2023-02-08T16:09:58.002Z,17.95
2023-02-08T16:13:06.005Z,16.67
2023-02-08T16:16:18.729Z,18.30
2023-02-08T16:19:29.268Z,16.92
2023-02-08T16:22:33.646Z,18.15
2023-02-08T16:25:45.465Z,18.33
2023-02-08T16:29:00.927Z,19.75
2023-02-08T16:32:13.347Z,19.98
2023-02-08T16:35:25.365Z,17.00
2023-02-08T16:38:31.548Z,20.85
2023-02-08T16:41:57.238Z,21.13
2023-02-08T16:45:17.308Z,20.08
2023-02-08T16:48:35.019Z,21.63
2023-02-08T16:51:39.629Z,20.27
2023-02-08T16:54:42.231Z,20.85
2023-02-08T16:58:00.167Z,22.48
2023-02-08T17:01:03.831Z,22.58
2023-02-08T17:04:08.467Z,23.75
2023-02-08T17:07:30.135Z,24.23
2023-02-08T17:10:36.070Z,24.23
2023-02-08T17:13:41.685Z,20.85
2023-02-08T17:16:44.720Z,22.27
2023-02-08T17:19:48.000Z,21.17
2023-02-08T17:22:52.361Z,21.33
2023-02-08T17:26:06.371Z,23.95
2023-02-08T17:29:13.535Z,21.60
2023-02-08T17:32:16.376Z,22.90
2023-02-08T17:35:19.636Z,23.00
2023-02-08T17:38:22.201Z,22.80
2023-02-08T17:41:31.469Z,21.80
2023-02-08T17:44:43.890Z,21.20
2023-02-08T17:47:47.071Z,24.42
2023-02-08T17:50:52.464Z,22.25
2023-02-08T17:53:58.193Z,21.95
2023-02-08T17:57:00.682Z,18.77
2023-02-08T18:00:05.926Z,18.90
2023-02-08T18:03:14.074Z,18.00
2023-02-08T18:06:18.311Z,19.85
2023-02-08T18:09:32.956Z,19.77
2023-02-08T18:13:16.335Z,19.25
2023-02-08T18:16:38.414Z,23.00
2023-02-08T18:19:40.667Z,22.60
2023-02-08T18:22:47.886Z,20.95
2023-02-08T18:25:50.968Z,23.88
2023-02-08T18:28:55.601Z,21.52
2023-02-08T18:31:57.801Z,23.42
2023-02-08T18:35:04.261Z,26.88
2023-02-08T18:38:06.532Z,23.00
2023-02-08T18:41:21.474Z,25.42
2023-02-08T18:44:23.618Z,26.42
2023-02-08T18:47:25.768Z,25.70
2023-02-08T18:50:29.467Z,26.80
2023-02-08T18:53:35.178Z,28.10
2023-02-08T18:56:37.214Z,26.20
2023-02-08T18:59:41.647Z,29.55
2023-02-08T19:02:47.177Z,31.38
2023-02-08T19:05:49.946Z,33.40
2023-02-08T19:08:54.997Z,30.58
2023-02-08T19:11:57.718Z,33.75
2023-02-08T19:14:59.946Z,33.03
2023-02-08T19:18:02.402Z,32.40
2023-02-08T19:21:12.936Z,29.90
2023-02-08T19:24:15.670Z,31.88
2023-02-08T19:27:18.857Z,32.00
2023-02-08T19:30:22.476Z,32.45
2023-02-08T19:33:26.082Z,32.72
2023-02-08T19:36:33.512Z,35.72
2023-02-08T19:39:41.137Z,30.70
2023-02-08T19:42:46.458Z,33.90
2023-02-08T19:45:48.631Z,35.20
2023-02-08T19:48:53.282Z,36.47
2023-02-08T19:51:56.890Z,40.83
2023-02-08T19:54:59.279Z,41.47
2023-02-08T19:58:03.548Z,40.78
2023-02-08T20:01:17.862Z,38.80
2023-02-08T20:04:24.776Z,40.20
2023-02-08T20:07:26.872Z,44.78
2023-02-08T20:10:28.905Z,45.00
2023-02-08T20:13:31.055Z,44.05
2023-02-08T20:16:34.093Z,45.22
2023-02-08T20:19:38.503Z,45.35
2023-02-08T20:22:40.941Z,45.45
2023-02-08T20:25:43.442Z,42.58
2023-02-08T20:28:51.610Z,40.60
2023-02-08T20:31:56.087Z,41.05
2023-02-08T20:35:00.137Z,42.92
2023-02-08T20:38:02.929Z,44.40
2023-02-08T20:41:11.003Z,44.65
2023-02-08T20:44:23.071Z,43.65
2023-02-08T20:47:27.387Z,44.58
2023-02-08T20:50:31.019Z,45.08
2023-02-08T20:53:34.755Z,42.47
2023-02-08T20:56:38.277Z,46.28
2023-02-08T20:59:42.371Z,43.25
2023-02-08T21:02:44.463Z,43.97
2023-02-08T21:05:46.834Z,45.03
2023-02-08T21:08:51.840Z,44.80
2023-02-08T21:11:54.210Z,46.42
2023-02-08T21:15:15.088Z,45.85
2023-02-08T21:18:17.251Z,47.63
2023-02-08T21:21:20.534Z,45.10
2023-02-08T21:24:26.494Z,44.40
2023-02-08T21:27:29.424Z,44.85
2023-02-08T21:30:32.113Z,39.83
2023-02-08T21:33:37.276Z,41.15
2023-02-08T21:36:40.863Z,41.17
2023-02-08T21:39:45.425Z,42.78
2023-02-08T21:42:49.056Z,41.53
2023-02-08T21:45:51.945Z,46.42
2023-02-08T21:49:14.149Z,43.25
2023-02-08T21:52:36.128Z,41.80
2023-02-08T21:55:38.366Z,44.42
2023-02-08T21:58:40.516Z,43.50
2023-02-08T22:01:42.950Z,44.50
2023-02-08T22:05:03.908Z,43.05
2023-02-08T22:08:06.042Z,40.58
2023-02-08T22:11:09.017Z,36.92
2023-02-08T22:14:12.618Z,38.35
2023-02-08T22:17:15.283Z,40.03
2023-02-08T22:20:17.484Z,38.65
2023-02-08T22:23:19.826Z,39.20
2023-02-08T22:26:22.056Z,37.15
2023-02-08T22:29:24.111Z,35.33
2023-02-08T22:32:26.216Z,36.50
2023-02-08T22:35:28.307Z,35.78
2023-02-08T22:38:30.333Z,39.92
2023-02-08T22:41:32.527Z,38.10
2023-02-08T22:44:39.140Z,36.50
2023-02-08T22:47:41.505Z,35.03
2023-02-08T22:50:44.482Z,36.25
2023-02-08T22:53:47.023Z,36.85
2023-02-08T22:56:49.164Z,34.88
2023-02-08T22:59:52.028Z,35.03
2023-02-08T23:02:54.126Z,36.55
2023-02-08T23:05:56.878Z,37.65
2023-02-08T23:08:59.200Z,34.42
2023-02-08T23:12:01.592Z,34.83
2023-02-08T23:15:04.784Z,32.95
2023-02-08T23:18:08.468Z,35.15
2023-02-08T23:21:13.803Z,36.40
2023-02-08T23:24:17.117Z,35.08
2023-02-08T23:27:19.382Z,35.05
2023-02-08T23:30:21.588Z,34.53
2023-02-08T23:33:23.667Z,33.75
2023-02-08T23:36:25.881Z,33.72
2023-02-08T23:39:27.886Z,30.80
2023-02-08T23:42:29.877Z,34.30
2023-02-08T23:45:32.141Z,32.88
2023-02-08T23:48:36.733Z,32.42
2023-02-08T23:51:40.086Z,31.65
2023-02-08T23:54:42.362Z,32.67
2023-02-08T23:57:44.373Z,32.05
